Aviation Digital Data Service (ADDS)

Output produced by METARs form (1206 UTC 24 February 2018)
found at http://www.aviationweather.gov/adds/metars/
 
OLBA 241200Z 25006KT 8000 SCT023 19/11 Q1011 NOSIG
TAF OLBA 241000Z 2412/2518 27010KT 9999 SKC 
     BECMG 2418/2421 VRB05KT 7000 FEW026 
     BECMG 2500/2503 18015KT OVC090 
     BECMG 2506/2509 20015G40KT 
     BECMG 2512/2515 22015KT SCT026 BKN200 
     TEMPO 2500/2512 4000 HZ 
     TEMPO 2512/2518 22010G20KT 4000 RA